createdAt,value
2023-02-28T00:01:29.676Z,2.30
2023-02-28T00:03:57.024Z,2.30
2023-02-28T00:06:25.213Z,2.40
2023-02-28T00:08:52.131Z,2.30
2023-02-28T00:11:18.950Z,2.30
2023-02-28T00:13:47.888Z,2.40
2023-02-28T00:16:19.705Z,2.30
2023-02-28T00:18:48.578Z,2.40
2023-02-28T00:21:17.308Z,2.40
2023-02-28T00:23:44.877Z,2.30
2023-02-28T00:26:12.135Z,2.40
2023-02-28T00:28:40.674Z,2.40
2023-02-28T00:31:07.552Z,2.40
2023-02-28T00:33:35.842Z,2.50
2023-02-28T00:36:09.194Z,2.50
2023-02-28T00:38:38.410Z,2.60
2023-02-28T00:41:05.745Z,2.70
2023-02-28T00:43:35.679Z,2.70
2023-02-28T00:46:03.289Z,2.70
2023-02-28T00:48:31.346Z,2.80
2023-02-28T00:50:58.206Z,2.80
2023-02-28T00:53:25.787Z,2.70
2023-02-28T00:55:53.016Z,2.70
2023-02-28T00:58:19.971Z,2.80
2023-02-28T01:00:50.433Z,2.80
2023-02-28T01:03:19.601Z,2.80
2023-02-28T01:05:47.613Z,2.80
2023-02-28T01:08:15.252Z,2.80
2023-02-28T01:10:42.589Z,2.80
2023-02-28T01:13:09.581Z,2.80
2023-02-28T01:15:38.913Z,2.90
2023-02-28T01:18:05.869Z,2.80
2023-02-28T01:20:32.706Z,2.90
2023-02-28T01:22:59.472Z,2.90
2023-02-28T01:25:26.483Z,2.90
2023-02-28T01:27:53.307Z,2.90
2023-02-28T01:30:20.446Z,3.00
2023-02-28T01:32:47.886Z,3.00
2023-02-28T01:35:14.724Z,3.10
2023-02-28T01:37:41.533Z,3.10
2023-02-28T01:40:09.500Z,3.10
2023-02-28T01:42:36.368Z,3.10
2023-02-28T01:45:29.327Z,3.10
2023-02-28T01:48:08.891Z,3.20
2023-02-28T01:50:46.200Z,3.20
2023-02-28T01:53:21.350Z,3.20
2023-02-28T01:55:52.909Z,3.20
2023-02-28T01:58:21.803Z,3.20
2023-02-28T02:00:48.846Z,3.20
2023-02-28T02:03:21.169Z,3.20
2023-02-28T02:05:48.944Z,3.20
2023-02-28T02:08:25.674Z,3.20
2023-02-28T02:10:58.318Z,3.30
2023-02-28T02:13:54.240Z,3.30
2023-02-28T02:16:43.352Z,3.20
2023-02-28T02:19:29.440Z,3.20
2023-02-28T02:22:10.829Z,3.30
2023-02-28T02:25:29.157Z,3.30
2023-02-28T02:27:58.773Z,3.30
2023-02-28T02:30:52.999Z,3.20
2023-02-28T02:33:40.946Z,3.30
2023-02-28T02:36:36.355Z,3.30
2023-02-28T02:39:10.190Z,3.30
2023-02-28T02:41:50.283Z,3.40
2023-02-28T02:44:29.566Z,3.40
2023-02-28T02:47:06.459Z,3.40
2023-02-28T02:49:39.151Z,3.50
2023-02-28T02:52:15.357Z,3.50
2023-02-28T02:54:48.815Z,3.50
2023-02-28T02:57:26.472Z,3.50
2023-02-28T02:59:57.309Z,3.50
2023-02-28T03:02:27.013Z,3.50
2023-02-28T03:05:02.274Z,3.50
2023-02-28T03:07:29.605Z,3.60
2023-02-28T03:09:58.460Z,3.60
2023-02-28T03:12:49.626Z,3.60
2023-02-28T03:15:30.502Z,3.60
2023-02-28T03:18:10.929Z,3.60
2023-02-28T03:21:16.779Z,3.60
2023-02-28T03:23:54.756Z,3.60
2023-02-28T03:26:27.712Z,3.60
2023-02-28T03:29:23.404Z,3.60
2023-02-28T03:32:01.236Z,3.60
2023-02-28T03:34:35.288Z,3.60
2023-02-28T03:37:12.427Z,3.60
2023-02-28T03:39:46.409Z,3.60
2023-02-28T03:42:20.825Z,3.60
2023-02-28T03:45:03.545Z,3.60
2023-02-28T03:47:59.773Z,3.60
2023-02-28T03:50:44.857Z,3.70
2023-02-28T03:53:40.614Z,3.70
2023-02-28T03:56:34.070Z,3.70
2023-02-28T03:59:17.421Z,3.60
2023-02-28T04:01:48.261Z,3.60
2023-02-28T04:04:17.806Z,3.70
2023-02-28T04:06:46.088Z,3.70
2023-02-28T04:09:15.669Z,3.60
2023-02-28T04:11:47.529Z,3.60
2023-02-28T04:14:14.295Z,3.60
2023-02-28T04:16:43.230Z,3.60
2023-02-28T04:19:12.707Z,3.60
2023-02-28T04:21:46.575Z,3.70
2023-02-28T04:24:17.995Z,3.60
2023-02-28T04:26:48.226Z,3.70
2023-02-28T04:29:25.084Z,3.60
2023-02-28T04:31:54.076Z,3.60
2023-02-28T04:34:22.133Z,3.60
2023-02-28T04:37:10.154Z,3.50
2023-02-28T04:39:39.877Z,3.50
2023-02-28T04:42:07.210Z,3.60
2023-02-28T04:44:34.057Z,3.50
2023-02-28T04:47:01.127Z,3.60
2023-02-28T04:49:27.976Z,3.60
2023-02-28T04:51:55.000Z,3.60
2023-02-28T04:54:22.189Z,3.70
2023-02-28T04:56:50.802Z,3.70
2023-02-28T04:59:18.451Z,3.60
2023-02-28T05:01:50.234Z,3.60
2023-02-28T05:04:18.345Z,3.60
2023-02-28T05:06:45.267Z,3.50
2023-02-28T05:09:15.322Z,3.60
2023-02-28T05:11:42.321Z,3.50
2023-02-28T05:14:15.531Z,3.60
2023-02-28T05:16:43.146Z,3.60
2023-02-28T05:19:10.193Z,3.50
2023-02-28T05:21:42.805Z,3.60
2023-02-28T05:24:13.371Z,3.50
2023-02-28T05:26:43.967Z,3.50
2023-02-28T05:29:11.594Z,3.50
2023-02-28T05:31:39.688Z,3.50
2023-02-28T05:34:07.357Z,3.50
2023-02-28T05:36:34.624Z,3.60
2023-02-28T05:39:01.773Z,3.60
2023-02-28T05:41:29.032Z,3.50
2023-02-28T05:43:56.279Z,3.50
2023-02-28T05:46:23.152Z,3.50
2023-02-28T05:48:50.151Z,3.20
2023-02-28T05:51:17.960Z,3.30
2023-02-28T05:53:45.237Z,3.20
2023-02-28T05:56:12.040Z,3.20
2023-02-28T05:58:39.021Z,3.20
2023-02-28T06:01:49.292Z,3.20
2023-02-28T06:04:30.984Z,3.00
2023-02-28T06:06:59.085Z,3.00
2023-02-28T06:09:26.012Z,2.90
2023-02-28T06:11:53.016Z,2.90
2023-02-28T06:14:21.447Z,2.80
2023-02-28T06:16:48.432Z,2.80
2023-02-28T06:19:16.208Z,2.80
2023-02-28T06:21:43.983Z,2.70
2023-02-28T06:24:10.972Z,2.70
2023-02-28T06:26:37.946Z,2.60
2023-02-28T06:29:04.823Z,2.50
2023-02-28T06:31:31.894Z,2.50
2023-02-28T06:33:59.133Z,2.50
2023-02-28T06:36:25.925Z,2.50
2023-02-28T06:38:55.630Z,2.50
2023-02-28T06:41:27.428Z,2.40
2023-02-28T06:43:55.006Z,2.40
2023-02-28T06:46:22.522Z,2.40
2023-02-28T06:48:49.616Z,2.40
2023-02-28T06:51:23.115Z,2.40
2023-02-28T06:53:50.039Z,2.40
2023-02-28T06:56:18.775Z,2.50
2023-02-28T06:58:53.788Z,2.60
2023-02-28T07:01:21.609Z,2.60
2023-02-28T07:03:52.932Z,2.60
2023-02-28T07:06:24.918Z,2.60
2023-02-28T07:08:53.926Z,2.60
2023-02-28T07:11:23.889Z,2.60
2023-02-28T07:13:51.933Z,2.70
2023-02-28T07:16:19.486Z,2.70
2023-02-28T07:18:46.529Z,2.70
2023-02-28T07:21:13.499Z,2.80
2023-02-28T07:23:40.605Z,2.80
2023-02-28T07:26:13.789Z,2.80
2023-02-28T07:28:40.679Z,2.90
2023-02-28T07:31:09.109Z,2.90
2023-02-28T07:33:36.170Z,2.80
2023-02-28T07:36:14.395Z,2.80
2023-02-28T07:38:41.750Z,2.90
2023-02-28T07:41:09.178Z,2.90
2023-02-28T07:43:36.587Z,2.90
2023-02-28T07:46:08.588Z,2.90
2023-02-28T07:48:36.132Z,2.90
2023-02-28T07:51:03.985Z,2.90
2023-02-28T07:53:31.388Z,2.90
2023-02-28T07:56:00.529Z,2.90
2023-02-28T07:58:30.037Z,2.90
2023-02-28T08:00:58.106Z,3.00
2023-02-28T08:03:25.713Z,2.90
2023-02-28T08:05:53.649Z,2.90
2023-02-28T08:08:20.610Z,2.90
2023-02-28T08:10:47.430Z,3.00
2023-02-28T08:13:14.340Z,3.00
2023-02-28T08:15:43.853Z,3.00
2023-02-28T08:18:11.177Z,3.00
2023-02-28T08:20:38.090Z,3.10
2023-02-28T08:23:04.889Z,3.10
2023-02-28T08:25:31.850Z,3.10
2023-02-28T08:28:02.212Z,3.10
2023-02-28T08:30:29.023Z,3.20
2023-02-28T08:32:56.344Z,3.30
2023-02-28T08:35:23.899Z,3.20
2023-02-28T08:37:51.440Z,3.20
2023-02-28T08:40:21.459Z,3.10
2023-02-28T08:42:49.175Z,3.20
2023-02-28T08:45:16.327Z,3.30
2023-02-28T08:47:43.357Z,3.30
2023-02-28T08:50:11.235Z,3.20
2023-02-28T08:52:39.421Z,3.20
2023-02-28T08:55:06.733Z,3.30
2023-02-28T08:57:33.730Z,3.40
2023-02-28T09:00:00.652Z,3.40
2023-02-28T09:02:27.615Z,3.60
2023-02-28T09:04:54.628Z,3.60
2023-02-28T09:07:21.457Z,3.80
2023-02-28T09:09:58.668Z,3.80
2023-02-28T09:12:27.695Z,3.80
2023-02-28T09:14:54.891Z,3.70
2023-02-28T09:17:21.700Z,3.70
2023-02-28T09:19:51.673Z,3.60
2023-02-28T09:22:18.648Z,3.80
2023-02-28T09:24:45.856Z,3.90
2023-02-28T09:27:12.831Z,3.80
2023-02-28T09:29:39.762Z,3.80
2023-02-28T09:32:06.911Z,3.70
2023-02-28T09:34:34.449Z,3.90
2023-02-28T09:37:01.444Z,4.00
2023-02-28T09:39:29.426Z,4.00
2023-02-28T09:41:57.411Z,4.20
2023-02-28T09:44:38.368Z,4.10
2023-02-28T09:47:37.405Z,4.40
2023-02-28T09:50:30.669Z,4.50
2023-02-28T09:52:59.038Z,4.60
2023-02-28T09:55:46.481Z,4.50
2023-02-28T09:58:29.363Z,4.60
2023-02-28T10:01:18.646Z,4.80
2023-02-28T10:04:05.944Z,4.80
2023-02-28T10:06:49.573Z,4.80
2023-02-28T10:09:28.064Z,5.10
2023-02-28T10:12:02.962Z,5.50
2023-02-28T10:14:34.628Z,5.30
2023-02-28T10:17:14.378Z,5.30
2023-02-28T10:19:56.186Z,5.60
2023-02-28T10:22:59.159Z,5.40
2023-02-28T10:25:30.366Z,5.50
2023-02-28T10:28:08.870Z,5.60
2023-02-28T10:30:44.659Z,5.40
2023-02-28T10:33:29.673Z,5.50
2023-02-28T10:35:56.916Z,5.80
2023-02-28T10:38:51.350Z,5.60
2023-02-28T10:41:31.355Z,5.60
2023-02-28T10:44:24.604Z,5.90
2023-02-28T10:46:52.749Z,6.20
2023-02-28T10:49:27.813Z,6.50
2023-02-28T10:52:01.447Z,6.70
2023-02-28T10:54:36.596Z,6.70
2023-02-28T10:57:22.441Z,6.90
2023-02-28T11:00:06.184Z,7.00
2023-02-28T11:02:39.070Z,6.70
2023-02-28T11:05:31.761Z,6.50
2023-02-28T11:08:17.177Z,6.50
2023-02-28T11:11:01.674Z,6.50
2023-02-28T11:13:38.910Z,6.90
2023-02-28T11:16:11.140Z,7.00
2023-02-28T11:18:55.360Z,6.90
2023-02-28T11:21:29.885Z,6.80
2023-02-28T11:24:16.123Z,6.50
2023-02-28T11:26:52.191Z,6.50
2023-02-28T11:29:29.218Z,6.50
2023-02-28T11:32:22.231Z,6.80
2023-02-28T11:35:12.417Z,6.60
2023-02-28T11:37:40.502Z,6.60
2023-02-28T11:40:22.729Z,6.70
2023-02-28T11:43:06.232Z,6.70
2023-02-28T11:45:43.733Z,7.00
2023-02-28T11:48:39.523Z,7.00
2023-02-28T11:51:34.703Z,7.00
2023-02-28T11:54:31.663Z,7.00
2023-02-28T11:57:16.932Z,7.40
2023-02-28T12:00:26.485Z,6.90
2023-02-28T12:03:15.603Z,6.90
2023-02-28T12:05:54.065Z,6.90
2023-02-28T12:09:11.766Z,7.10
2023-02-28T12:12:13.762Z,7.10
2023-02-28T12:14:50.703Z,7.40
2023-02-28T12:17:44.229Z,7.30
2023-02-28T12:20:48.611Z,7.60
2023-02-28T12:23:48.592Z,7.50
2023-02-28T12:26:40.784Z,7.50
2023-02-28T12:29:30.376Z,7.20
2023-02-28T12:32:10.853Z,7.10
2023-02-28T12:34:48.826Z,7.10
2023-02-28T12:37:44.096Z,7.10
2023-02-28T12:40:23.680Z,7.20
2023-02-28T12:42:59.093Z,7.00
2023-02-28T12:46:10.358Z,7.00
2023-02-28T12:48:54.322Z,7.10
2023-02-28T12:51:22.376Z,7.10
2023-02-28T12:54:13.006Z,7.00
2023-02-28T12:56:48.649Z,7.10
2023-02-28T12:59:30.892Z,7.20
2023-02-28T13:02:52.711Z,6.90
2023-02-28T13:05:43.060Z,7.10
2023-02-28T13:08:35.368Z,7.20
2023-02-28T13:11:07.520Z,7.10
2023-02-28T13:13:35.278Z,6.70
2023-02-28T13:16:10.555Z,6.90
2023-02-28T13:18:48.112Z,7.10
2023-02-28T13:21:32.069Z,7.30
2023-02-28T13:24:09.985Z,7.10
2023-02-28T13:26:36.995Z,6.90
2023-02-28T13:29:16.723Z,6.90
2023-02-28T13:32:11.308Z,7.10
2023-02-28T13:34:49.907Z,7.10
2023-02-28T13:37:23.017Z,7.00
2023-02-28T13:39:58.466Z,7.00
2023-02-28T13:42:50.552Z,7.00
2023-02-28T13:45:30.986Z,6.90
2023-02-28T13:48:17.527Z,6.70
2023-02-28T13:50:45.161Z,6.70
2023-02-28T13:53:15.015Z,6.90
2023-02-28T13:56:26.069Z,6.80
2023-02-28T13:59:17.299Z,6.90
2023-02-28T14:02:29.362Z,6.90
2023-02-28T14:05:20.642Z,7.00
2023-02-28T14:07:55.582Z,7.00
2023-02-28T14:10:42.823Z,6.90
2023-02-28T14:13:46.117Z,6.90
2023-02-28T14:16:30.921Z,6.90
2023-02-28T14:19:06.460Z,6.90
2023-02-28T14:21:44.165Z,6.90
2023-02-28T14:24:41.925Z,6.90
2023-02-28T14:27:30.532Z,6.90
2023-02-28T14:30:52.333Z,6.90
2023-02-28T14:33:38.608Z,6.80
2023-02-28T14:36:36.070Z,7.00
2023-02-28T14:39:14.521Z,7.00
2023-02-28T14:41:44.779Z,7.00
2023-02-28T14:44:27.531Z,7.10
2023-02-28T14:47:06.431Z,7.00
2023-02-28T14:49:46.662Z,6.90
2023-02-28T14:52:13.410Z,7.00
2023-02-28T14:54:41.346Z,7.10
2023-02-28T14:57:24.635Z,7.10
2023-02-28T15:00:23.982Z,7.10
2023-02-28T15:02:51.013Z,7.00
2023-02-28T15:05:27.810Z,7.00
2023-02-28T15:08:17.106Z,7.20
2023-02-28T15:11:05.737Z,7.10
2023-02-28T15:13:50.472Z,7.10
2023-02-28T15:16:26.140Z,7.10
2023-02-28T15:19:01.174Z,7.10
2023-02-28T15:21:34.757Z,7.10
2023-02-28T15:24:38.493Z,7.00
2023-02-28T15:27:14.879Z,6.90
2023-02-28T15:29:54.554Z,7.10
2023-02-28T15:32:33.784Z,7.20
2023-02-28T15:35:36.322Z,7.20
2023-02-28T15:38:13.424Z,7.10
2023-02-28T15:40:45.654Z,7.10
2023-02-28T15:43:19.602Z,7.00
2023-02-28T15:46:15.160Z,7.10
2023-02-28T15:48:46.568Z,7.20
2023-02-28T15:51:18.032Z,7.00
2023-02-28T15:53:55.824Z,7.00
2023-02-28T15:56:32.800Z,6.90
2023-02-28T15:59:06.353Z,6.90
2023-02-28T16:01:39.025Z,6.90
2023-02-28T16:04:20.090Z,6.90
2023-02-28T16:07:01.024Z,6.90
2023-02-28T16:09:30.432Z,6.80
2023-02-28T16:12:02.690Z,6.80
2023-02-28T16:14:31.749Z,6.80
2023-02-28T16:17:06.643Z,6.70
2023-02-28T16:19:34.684Z,6.80
2023-02-28T16:22:02.073Z,6.80
2023-02-28T16:24:28.940Z,6.70
2023-02-28T16:26:58.060Z,6.70
2023-02-28T16:29:33.250Z,6.60
2023-02-28T16:32:01.189Z,6.60
2023-02-28T16:34:28.291Z,6.60
2023-02-28T16:36:55.189Z,6.60
2023-02-28T16:39:22.021Z,6.60
2023-02-28T16:41:51.149Z,6.50
2023-02-28T16:44:34.119Z,6.60
2023-02-28T16:47:02.660Z,6.50
2023-02-28T16:49:29.814Z,6.40
2023-02-28T16:51:57.082Z,6.40
2023-02-28T16:54:24.331Z,6.40
2023-02-28T16:56:51.334Z,6.40
2023-02-28T16:59:25.243Z,6.30
2023-02-28T17:01:52.902Z,6.20
2023-02-28T17:04:20.529Z,6.20
2023-02-28T17:06:47.506Z,6.20
2023-02-28T17:09:22.958Z,6.10
2023-02-28T17:11:51.343Z,6.10
2023-02-28T17:14:18.192Z,6.00
2023-02-28T17:16:45.122Z,6.00
2023-02-28T17:19:17.912Z,5.90
2023-02-28T17:21:45.660Z,5.80
2023-02-28T17:24:16.503Z,5.80
2023-02-28T17:26:46.475Z,5.70
2023-02-28T17:29:20.261Z,5.70
2023-02-28T17:31:47.232Z,5.60
2023-02-28T17:34:19.187Z,5.60
2023-02-28T17:36:48.152Z,5.40
2023-02-28T17:39:20.629Z,5.40
2023-02-28T17:41:47.411Z,5.40
2023-02-28T17:44:14.322Z,5.20
2023-02-28T17:46:42.379Z,5.20
2023-02-28T17:49:10.838Z,5.10
2023-02-28T17:51:37.782Z,5.00
2023-02-28T17:54:04.656Z,5.00
2023-02-28T17:56:32.006Z,4.90
2023-02-28T17:58:59.406Z,4.80
2023-02-28T18:01:27.051Z,4.80
2023-02-28T18:03:55.578Z,4.80
2023-02-28T18:06:28.270Z,4.80
2023-02-28T18:08:55.593Z,4.60
2023-02-28T18:11:24.459Z,4.60
2023-02-28T18:13:56.720Z,4.50
2023-02-28T18:16:23.729Z,4.40
2023-02-28T18:18:50.777Z,4.40
2023-02-28T18:21:18.091Z,4.40
2023-02-28T18:23:48.330Z,4.30
2023-02-28T18:26:18.102Z,4.30
2023-02-28T18:28:46.268Z,4.10
2023-02-28T18:31:18.827Z,4.10
2023-02-28T18:33:50.257Z,4.00
2023-02-28T18:36:18.516Z,3.90
2023-02-28T18:38:46.006Z,3.80
2023-02-28T18:41:13.642Z,3.90
2023-02-28T18:43:40.727Z,3.90
2023-02-28T18:46:12.820Z,3.80
2023-02-28T18:48:40.664Z,3.80
2023-02-28T18:51:15.056Z,3.60
2023-02-28T18:53:43.230Z,3.40
2023-02-28T18:56:21.041Z,3.40
2023-02-28T18:58:47.896Z,3.40
2023-02-28T19:01:29.860Z,3.20
2023-02-28T19:04:00.373Z,3.20
2023-02-28T19:06:32.728Z,3.10
2023-02-28T19:09:02.031Z,3.00
2023-02-28T19:11:29.196Z,3.00
2023-02-28T19:13:56.969Z,3.00
2023-02-28T19:16:25.158Z,3.00
2023-02-28T19:18:52.181Z,2.90
2023-02-28T19:21:21.996Z,2.80
2023-02-28T19:23:49.443Z,2.80
2023-02-28T19:26:22.800Z,2.80
2023-02-28T19:28:50.081Z,2.80
2023-02-28T19:31:24.532Z,2.70
2023-02-28T19:33:55.859Z,2.70
2023-02-28T19:36:23.734Z,2.60
2023-02-28T19:38:50.798Z,2.70
2023-02-28T19:41:19.011Z,2.60
2023-02-28T19:43:46.585Z,2.50
2023-02-28T19:46:14.069Z,2.40
2023-02-28T19:48:42.698Z,2.40
2023-02-28T19:51:13.741Z,2.30
2023-02-28T19:53:42.928Z,2.20
2023-02-28T19:56:10.617Z,2.20
2023-02-28T19:58:38.130Z,2.20
2023-02-28T20:01:18.898Z,2.20
2023-02-28T20:03:50.922Z,2.20
2023-02-28T20:06:17.974Z,2.10
2023-02-28T20:08:44.748Z,2.00
2023-02-28T20:11:15.604Z,2.00
2023-02-28T20:13:43.702Z,1.90
2023-02-28T20:16:13.235Z,1.90
2023-02-28T20:18:41.524Z,1.80
2023-02-28T20:21:10.152Z,1.90
2023-02-28T20:23:41.703Z,1.80
2023-02-28T20:26:09.804Z,1.80
2023-02-28T20:28:38.100Z,1.80
2023-02-28T20:31:25.506Z,1.70
2023-02-28T20:33:53.037Z,1.70
2023-02-28T20:36:22.474Z,1.70
2023-02-28T20:38:51.940Z,1.60
2023-02-28T20:41:19.507Z,1.60
2023-02-28T20:43:46.873Z,1.50
2023-02-28T20:46:14.077Z,1.50
2023-02-28T20:48:40.884Z,1.50
2023-02-28T20:51:08.324Z,1.40
2023-02-28T20:53:36.438Z,1.40
2023-02-28T20:56:12.564Z,1.30
2023-02-28T20:58:39.883Z,1.30
2023-02-28T21:01:26.015Z,1.30
2023-02-28T21:04:00.256Z,1.30
2023-02-28T21:06:40.390Z,1.30
2023-02-28T21:09:10.450Z,1.20
2023-02-28T21:11:39.505Z,1.10
2023-02-28T21:14:14.745Z,1.10
2023-02-28T21:16:42.587Z,1.10
2023-02-28T21:19:10.442Z,1.10
2023-02-28T21:21:44.255Z,1.10
2023-02-28T21:24:17.935Z,1.10
2023-02-28T21:26:47.033Z,1.10
2023-02-28T21:29:15.074Z,1.00
2023-02-28T21:31:42.494Z,1.00
2023-02-28T21:34:12.408Z,1.00
2023-02-28T21:36:45.448Z,0.90
2023-02-28T21:39:21.727Z,0.90
2023-02-28T21:41:48.907Z,0.90
2023-02-28T21:44:19.044Z,0.90
2023-02-28T21:46:49.837Z,0.80
2023-02-28T21:49:17.135Z,0.80
2023-02-28T21:51:44.434Z,0.80
2023-02-28T21:54:11.754Z,0.80
2023-02-28T21:56:39.045Z,0.70
2023-02-28T21:59:08.153Z,0.70
2023-02-28T22:01:38.971Z,0.70
2023-02-28T22:04:10.215Z,0.70
2023-02-28T22:06:40.908Z,0.70
2023-02-28T22:09:10.209Z,0.70
2023-02-28T22:11:39.190Z,0.70
2023-02-28T22:14:07.597Z,0.70
2023-02-28T22:16:49.536Z,0.70
2023-02-28T22:19:18.180Z,0.70
2023-02-28T22:21:45.814Z,0.70
2023-02-28T22:24:12.884Z,0.70
2023-02-28T22:26:39.695Z,0.70
2023-02-28T22:29:06.818Z,0.60
2023-02-28T22:31:36.530Z,0.60
2023-02-28T22:34:08.756Z,0.50
2023-02-28T22:36:36.097Z,0.60
2023-02-28T22:39:04.022Z,0.70
2023-02-28T22:41:31.279Z,0.70
2023-02-28T22:44:04.496Z,0.70
2023-02-28T22:46:34.059Z,0.70
2023-02-28T22:49:04.687Z,0.60
2023-02-28T22:51:31.876Z,0.50
2023-02-28T22:53:59.012Z,0.50
2023-02-28T22:56:29.025Z,0.50
2023-02-28T22:58:59.561Z,0.40
2023-02-28T23:01:31.079Z,0.40
2023-02-28T23:03:59.020Z,0.40
2023-02-28T23:06:34.231Z,0.40
2023-02-28T23:09:06.765Z,0.30
2023-02-28T23:11:42.227Z,0.30
2023-02-28T23:14:12.686Z,0.30
2023-02-28T23:16:45.130Z,0.30
2023-02-28T23:19:26.759Z,0.30
2023-02-28T23:21:54.629Z,0.30
2023-02-28T23:24:24.591Z,0.30
2023-02-28T23:26:55.401Z,0.20
2023-02-28T23:29:24.950Z,0.20
2023-02-28T23:31:52.497Z,0.20
2023-02-28T23:34:26.284Z,0.20
2023-02-28T23:36:55.272Z,0.20
2023-02-28T23:39:23.905Z,0.10
2023-02-28T23:41:51.806Z,0.10
2023-02-28T23:44:18.650Z,0.10
2023-02-28T23:46:51.895Z,0.10
2023-02-28T23:49:20.720Z,0.10
2023-02-28T23:51:49.316Z,0.10
2023-02-28T23:54:17.493Z,0.10
2023-02-28T23:56:45.051Z,0.10
2023-02-28T23:59:12.271Z,0.00
